LIED

Details ICAO LIED (DCI)
Name DECIMOMANNU
Region Italy
Timezone Europe/Rome (UTC+1.0)
Plans Departing 5
Arriving 10
Stats Elevation 100 ft / 30 m (AMSL)
Location 39.353939° 8.972494°
Runways 2
Magnetic Variation 2.181° E
Sunrise 2016-12-04 06:29:35 UTC / 2016-12-04 07:29:35 Local
Sunset 2016-12-04 16:02:17 UTC / 2016-12-04 17:02:17 Local
Advertisement - Login to hide

Runways

ID Width Length Bearing (true) Bearing (mag) Surface Threshold Offset Overrun Length
17L 148 ft / 45 m 9,799 ft / 2,987 m 167.21° 165.03° Asphalt 494 ft / 151 m 0 ft / 0 m
17R 74 ft / 23 m 8,580 ft / 2,615 m 167.00° 164.82° Asphalt 0 ft / 0 m 0 ft / 0 m
35L 74 ft / 23 m 8,580 ft / 2,615 m 347.00° 344.82° Asphalt 0 ft / 0 m 0 ft / 0 m
35R 148 ft / 45 m 9,799 ft / 2,987 m 347.21° 345.03° Asphalt 495 ft / 151 m 0 ft / 0 m

Map

Weather

Temperature
Clouds and Precipitation
Forecast for 2016-12-03 18:00 UTC. Updated 13 hours ago
Winds

METAR

LIED 040555Z 00000KT 9999 FEW010 06/04 Q1018 RMK SCT VIS MIN 9999 WIND THR35 13001KT WIND THR17 04002KT BLU

TAF

Not found

Frequencies

Tower 122.10 MHz TWR
Approach 118.40 MHz CAGLIARI APP
Approach 118.75 MHz CAGLIARI APP
Warning: Do not use this data for real-world aviation or navigation. No guarantee of current accuracy is given.